Time;durP1;ratioP1;P1;durP2;ratioP2;P2;SDS_P1;SDS_P2;PMS_P1;PMS_P2;Temp;Humidity;BMP_temperature;BMP_pressure;BME280_temperature;BME280_humidity;BME280_pressure;Samples;Min_cycle;Max_cycle;Signal;HPM_P1;HPM_P2
2023/10/05 00:03:46;;;;;;;11.65;5.43;;;;;;;15.54;63.44;101155.84;5070794;28;20041;-67
2023/10/05 00:06:14;;;;;;;13.07;6.28;;;;;;;15.54;63.88;101168.88;5071012;28;20067;-67
2023/10/05 00:08:44;;;;;;;14.75;5.82;;;;;;;15.25;64.55;101155.03;5071262;28;20035;-68
2023/10/05 00:11:22;;;;;;;11.80;5.35;;;;;;;15.35;65.11;101180.44;5058929;28;20173;-68
2023/10/05 00:13:57;;;;;;;14.40;5.53;;;;;;;15.28;65.67;101169.00;5053695;28;20045;-68
2023/10/05 00:16:23;;;;;;;16.00;6.72;;;;;;;15.19;67.30;101163.53;5015395;28;20425;-67
2023/10/05 00:18:50;;;;;;;17.02;7.15;;;;;;;15.22;68.04;101168.81;5050366;28;20033;-68
2023/10/05 00:21:21;;;;;;;18.77;6.85;;;;;;;15.17;68.01;101158.28;5050146;28;20047;-67
2023/10/05 00:23:50;;;;;;;15.57;7.55;;;;;;;15.18;68.44;101156.56;5050432;28;20087;-68
2023/10/05 00:26:16;;;;;;;14.88;6.68;;;;;;;15.27;67.88;101168.97;5051201;28;20090;-68
2023/10/05 00:28:47;;;;;;;31.85;6.47;;;;;;;15.39;67.52;101179.72;5057584;28;20049;-68
2023/10/05 00:31:23;;;;;;;16.60;6.40;;;;;;;15.34;66.61;101179.59;5049968;28;20041;-68
2023/10/05 00:33:49;;;;;;;15.77;6.38;;;;;;;15.20;66.52;101170.47;5063752;28;20106;-67
2023/10/05 00:36:15;;;;;;;19.48;6.28;;;;;;;15.16;66.36;101179.91;5070523;28;20036;-67
2023/10/05 00:38:40;;;;;;;10.95;5.63;;;;;;;14.87;67.54;101179.06;5069697;28;20124;-67
2023/10/05 00:41:09;;;;;;;12.57;6.22;;;;;;;14.46;67.96;101137.03;5070643;28;20032;-67
2023/10/05 00:43:34;;;;;;;12.77;5.68;;;;;;;14.59;68.82;101180.72;5070572;28;20083;-67
2023/10/05 00:46:00;;;;;;;16.15;5.60;;;;;;;14.61;68.54;101183.41;5066975;28;20068;-67
2023/10/05 00:48:34;;;;;;;15.60;7.45;;;;;;;14.53;69.34;101188.38;5069958;28;20041;-67
2023/10/05 00:51:06;;;;;;;17.77;6.05;;;;;;;14.35;69.31;101140.16;5068816;28;20037;-67
2023/10/05 00:53:32;;;;;;;14.27;6.38;;;;;;;14.63;67.24;101185.22;5069705;28;20029;-67
2023/10/05 00:58:37;;;;;;;13.90;5.82;;;;;;;14.42;68.26;101150.72;5069802;28;20044;-67
2023/10/05 01:01:07;;;;;;;13.18;6.25;;;;;;;14.21;68.65;101183.84;5069438;28;20121;-67
2023/10/05 01:03:33;;;;;;;13.68;6.85;;;;;;;13.78;70.65;101191.88;5069043;28;20406;-67
2023/10/05 01:06:25;;;;;;;14.45;5.68;;;;;;;13.52;72.63;101195.31;5069405;28;20033;-69
2023/10/05 01:08:59;;;;;;;15.10;6.13;;;;;;;13.14;74.06;101157.56;5069825;28;20098;-68
2023/10/05 01:11:52;;;;;;;13.07;6.05;;;;;;;13.25;74.80;101202.91;5070450;28;20043;-68
2023/10/05 01:14:18;;;;;;;10.15;5.43;;;;;;;12.87;75.63;101172.13;5070132;28;20067;-67
2023/10/05 01:16:45;;;;;;;14.68;5.60;;;;;;;12.82;76.68;101186.56;5070523;28;20028;-67
2023/10/05 01:19:11;;;;;;;20.10;6.57;;;;;;;12.79;77.34;101197.69;5070338;28;20032;-67
2023/10/05 01:21:37;;;;;;;14.82;5.72;;;;;;;12.77;76.78;101183.81;5070402;28;20037;-67
2023/10/05 01:24:04;;;;;;;15.68;7.38;;;;;;;13.02;76.89;101189.06;5070044;28;20569;-67
2023/10/05 01:26:32;;;;;;;15.35;6.03;;;;;;;13.25;75.92;101196.00;5070019;28;20037;-68
2023/10/05 01:28:58;;;;;;;12.05;5.38;;;;;;;13.26;73.69;101189.13;5070206;28;20596;-67
2023/10/05 01:31:23;;;;;;;11.32;5.28;;;;;;;13.44;71.39;101194.13;5050932;28;20045;-68
2023/10/05 01:33:49;;;;;;;13.32;5.68;;;;;;;13.56;70.15;101185.94;5069721;28;20490;-67
2023/10/05 01:36:19;;;;;;;18.08;6.32;;;;;;;13.69;68.39;101182.06;5070245;28;20107;-69
2023/10/05 01:38:45;;;;;;;12.63;5.80;;;;;;;13.78;67.38;101176.31;5070143;28;20127;-69
2023/10/05 01:41:15;;;;;;;12.20;5.60;;;;;;;13.86;67.45;101188.72;5070010;28;20043;-66
2023/10/05 01:43:42;;;;;;;13.93;5.93;;;;;;;13.87;66.48;101181.84;5034309;28;20678;-68
2023/10/05 01:46:10;;;;;;;14.77;6.10;;;;;;;13.87;66.20;101179.25;5070142;28;20136;-69
2023/10/05 01:48:37;;;;;;;13.35;5.90;;;;;;;13.85;66.65;101181.75;5070410;28;20102;-68
2023/10/05 01:51:10;;;;;;;14.90;5.35;;;;;;;13.67;67.25;101156.06;5069869;28;20111;-69
2023/10/05 01:53:36;;;;;;;12.73;5.50;;;;;;;13.56;65.45;101145.28;5069944;28;20033;-67
2023/10/05 01:56:03;;;;;;;13.07;5.68;;;;;;;13.64;66.54;101168.91;5069803;28;20107;-69
2023/10/05 01:58:31;;;;;;;14.25;5.78;;;;;;;13.80;66.67;101178.13;5070027;28;20039;-67
2023/10/05 02:00:56;;;;;;;18.15;5.63;;;;;;;13.71;67.35;101152.72;5070021;28;20039;-68
2023/10/05 02:03:25;;;;;;;12.80;5.47;;;;;;;13.61;67.82;101155.84;5072722;28;20394;-68
2023/10/05 02:05:56;;;;;;;16.20;6.50;;;;;;;13.63;68.29;101174.91;5073399;28;20429;-68
2023/10/05 02:08:22;;;;;;;13.98;5.72;;;;;;;13.58;66.52;101168.69;5073466;28;20047;-67
2023/10/05 02:10:48;;;;;;;12.05;5.70;;;;;;;13.51;64.76;101144.25;5073736;28;20036;-68
2023/10/05 02:13:14;;;;;;;12.43;5.47;;;;;;;13.58;64.18;101134.97;5073553;28;20037;-68
2023/10/05 02:15:40;;;;;;;16.05;5.90;;;;;;;13.80;65.72;101188.50;5073381;28;20040;-68
2023/10/05 02:18:18;;;;;;;12.80;5.53;;;;;;;13.66;65.67;101190.63;5073606;28;20406;-68
2023/10/05 02:20:51;;;;;;;14.15;6.00;;;;;;;13.58;64.83;101192.03;5073113;28;20123;-68
2023/10/05 02:26:10;;;;;;;14.77;5.78;;;;;;;13.49;63.87;101156.28;5011004;28;20484;-68
2023/10/05 02:28:41;;;;;;;10.77;5.53;;;;;;;13.66;63.78;101188.03;5010816;28;20054;-67
2023/10/05 02:31:12;;;;;;;18.33;6.05;;;;;;;13.59;63.58;101162.69;5010518;28;20046;-68
2023/10/05 02:33:40;;;;;;;16.15;6.15;;;;;;;13.73;63.75;101207.28;5010895;28;20061;-68
2023/10/05 02:36:13;;;;;;;16.77;5.93;;;;;;;13.71;64.12;101214.16;5010858;28;20037;-69
2023/10/05 02:38:48;;;;;;;13.50;5.75;;;;;;;13.65;64.36;101204.41;5010601;28;20133;-67
2023/10/05 02:41:16;;;;;;;13.50;6.00;;;;;;;13.41;65.36;101194.91;5010766;28;20048;-67
2023/10/05 02:43:42;;;;;;;13.57;5.97;;;;;;;13.35;66.04;101196.38;5010306;28;20046;-67
2023/10/05 02:46:11;;;;;;;15.27;6.60;;;;;;;13.41;66.33;101210.47;5010554;28;20479;-68
2023/10/05 02:48:41;;;;;;;15.07;6.32;;;;;;;13.16;66.63;101199.97;5010560;28;20046;-67
2023/10/05 02:51:06;;;;;;;14.73;6.65;;;;;;;12.84;68.38;101209.97;5010619;28;20049;-67
2023/10/05 02:53:47;;;;;;;19.92;6.20;;;;;;;12.64;70.82;101212.66;5010544;28;20040;-67
2023/10/05 02:56:22;;;;;;;20.38;6.78;;;;;;;12.03;73.09;101205.81;5010122;28;20045;-67
2023/10/05 02:58:54;;;;;;;20.90;7.10;;;;;;;11.81;73.24;101222.94;5010464;28;20037;-66
2023/10/05 03:01:21;;;;;;;11.80;6.28;;;;;;;11.68;73.27;101218.06;5010222;28;20080;-67
2023/10/05 03:03:47;;;;;;;17.67;6.90;;;;;;;11.64;73.33;101217.03;5045083;28;20039;-67
2023/10/05 03:06:15;;;;;;;13.30;6.30;;;;;;;11.69;73.64;101219.81;5072289;28;20040;-67
2023/10/05 03:08:41;;;;;;;15.02;6.25;;;;;;;11.82;73.46;101217.84;5072243;28;20105;-67
2023/10/05 03:11:09;;;;;;;16.50;6.70;;;;;;;11.99;72.57;101212.56;5072481;28;20482;-67
2023/10/05 03:13:37;;;;;;;15.35;6.35;;;;;;;12.13;72.33;101214.00;5071598;28;20037;-67
2023/10/05 03:16:06;;;;;;;17.00;6.05;;;;;;;12.25;72.17;101217.94;5072303;28;20075;-67
2023/10/05 03:18:37;;;;;;;14.40;5.45;;;;;;;12.30;72.53;101217.31;5037476;28;20037;-67
2023/10/05 03:21:09;;;;;;;14.40;6.45;;;;;;;12.37;72.33;101200.31;5072047;28;20359;-67
2023/10/05 03:23:35;;;;;;;15.18;6.95;;;;;;;12.52;71.88;101214.75;5072254;28;20037;-67
2023/10/05 03:26:00;;;;;;;17.17;6.97;;;;;;;12.50;70.85;101214.69;5072323;28;20067;-67
2023/10/05 03:28:27;;;;;;;16.00;6.55;;;;;;;12.56;69.82;101225.28;5072163;28;20391;-67
2023/10/05 03:30:53;;;;;;;12.27;5.78;;;;;;;12.48;69.51;101185.22;5071542;28;20413;-67
2023/10/05 03:33:23;;;;;;;13.32;6.00;;;;;;;12.69;69.91;101221.47;5072167;28;20128;-68
2023/10/05 03:35:48;;;;;;;14.48;6.00;;;;;;;12.75;69.90;101216.56;5072040;28;20040;-67
2023/10/05 03:38:20;;;;;;;13.50;5.10;;;;;;;12.85;69.03;101210.03;5072099;28;20746;-67
2023/10/05 03:40:47;;;;;;;15.73;5.95;;;;;;;12.81;69.11;101215.03;5071948;28;20041;-67
2023/10/05 03:43:13;;;;;;;13.02;6.40;;;;;;;12.79;68.61;101205.47;5072160;28;20083;-67
2023/10/05 03:45:39;;;;;;;12.60;5.65;;;;;;;12.82;68.26;101204.72;5053906;28;20453;-68
2023/10/05 03:48:06;;;;;;;13.00;5.57;;;;;;;12.78;67.24;101221.88;5071654;28;20037;-68
2023/10/05 03:50:31;;;;;;;14.68;6.93;;;;;;;12.61;67.71;101207.31;5071397;28;20089;-68
2023/10/05 03:52:57;;;;;;;11.75;5.18;;;;;;;12.60;67.93;101210.75;5065451;28;20040;-67
2023/10/05 03:55:24;;;;;;;12.80;5.90;;;;;;;12.44;68.51;101212.72;5051743;28;20471;-67
2023/10/05 03:57:50;;;;;;;13.55;5.72;;;;;;;12.47;69.42;101209.34;5051523;28;20124;-67
2023/10/05 04:00:35;;;;;;;13.38;5.60;;;;;;;12.49;69.97;101212.91;5051154;28;20187;-67
2023/10/05 04:03:02;;;;;;;16.23;5.80;;;;;;;12.31;70.92;101202.66;5036435;28;20033;-67
2023/10/05 04:05:27;;;;;;;15.13;6.18;;;;;;;12.23;71.95;101215.28;5050950;28;20037;-67
2023/10/05 04:08:10;;;;;;;11.52;5.97;;;;;;;12.30;71.32;101224.22;5057614;28;20035;-67
2023/10/05 04:10:46;;;;;;;15.10;5.68;;;;;;;12.36;72.16;101228.75;5071287;28;20480;-67
2023/10/05 04:13:14;;;;;;;13.88;6.22;;;;;;;12.25;72.75;101230.88;5071236;28;20522;-66
2023/10/05 04:15:40;;;;;;;18.38;6.30;;;;;;;12.08;73.48;101233.63;5070636;28;20032;-66
2023/10/05 04:18:11;;;;;;;17.48;6.30;;;;;;;11.91;75.25;101237.16;5070429;28;20059;-67
2023/10/05 04:20:36;;;;;;;16.08;6.38;;;;;;;11.96;76.23;101243.47;5003297;28;20033;-66
2023/10/05 04:23:02;;;;;;;14.55;7.18;;;;;;;11.90;76.21;101225.94;5071052;28;20529;-66
2023/10/05 04:25:28;;;;;;;18.23;6.57;;;;;;;11.65;76.74;101203.25;5035146;28;20040;-66
2023/10/05 04:27:53;;;;;;;17.25;5.90;;;;;;;11.72;77.80;101251.88;5070872;28;20055;-66
2023/10/05 04:30:21;;;;;;;20.45;6.32;;;;;;;11.79;77.63;101248.75;5070713;28;20441;-67
2023/10/05 04:32:47;;;;;;;14.63;6.05;;;;;;;11.93;76.92;101253.66;5070851;28;20105;-67
2023/10/05 04:35:22;;;;;;;12.73;5.95;;;;;;;12.07;76.61;101246.53;5070919;28;20415;-66
2023/10/05 04:37:49;;;;;;;13.77;6.40;;;;;;;12.13;76.47;101247.66;5054453;28;20041;-67
2023/10/05 04:40:17;;;;;;;15.30;6.13;;;;;;;12.27;75.62;101247.38;5070607;28;20037;-67
2023/10/05 04:42:42;;;;;;;20.00;6.88;;;;;;;12.34;74.15;101257.19;5070643;28;20029;-66
2023/10/05 04:45:14;;;;;;;14.35;6.30;;;;;;;12.46;72.39;101249.03;5070801;28;20036;-67
2023/10/05 04:47:40;;;;;;;14.07;5.65;;;;;;;12.51;71.59;101252.72;5069332;28;20514;-67
2023/10/05 04:50:26;;;;;;;18.08;6.10;;;;;;;12.59;70.42;101240.06;5050696;28;20033;-67
2023/10/05 04:52:51;;;;;;;14.32;6.20;;;;;;;12.59;69.96;101245.25;5002505;28;20067;-67
2023/10/05 04:55:31;;;;;;;17.00;6.43;;;;;;;12.47;69.02;101211.94;5008195;28;20554;-66
2023/10/05 05:05:53;;;;;;;17.48;6.78;;;;;;;12.86;68.79;101263.63;5007955;28;20037;-67
2023/10/05 05:08:18;;;;;;;17.70;7.90;;;;;;;12.78;70.33;101265.03;5005396;28;20133;-66
2023/10/05 05:10:44;;;;;;;19.80;7.22;;;;;;;12.79;69.69;101261.59;5008139;28;20157;-66
2023/10/05 05:13:09;;;;;;;16.85;6.60;;;;;;;12.56;69.88;101226.97;5007896;28;20041;-67
2023/10/05 05:15:38;;;;;;;17.55;7.57;;;;;;;12.76;70.44;101264.06;5008004;28;20045;-67
2023/10/05 05:18:04;;;;;;;17.03;6.13;;;;;;;12.73;70.39;101256.19;5006764;28;20034;-67
2023/10/05 05:20:31;;;;;;;13.80;5.93;;;;;;;12.81;69.61;101261.66;4991300;28;20042;-67
2023/10/05 05:22:56;;;;;;;14.98;6.03;;;;;;;12.84;70.29;101261.81;4996171;28;20659;-67
2023/10/05 05:25:22;;;;;;;13.80;7.28;;;;;;;12.60;70.62;101227.19;5067566;28;20037;-66
2023/10/05 05:27:48;;;;;;;17.13;6.25;;;;;;;12.82;70.74;101279.00;5068886;28;20045;-66
2023/10/05 05:30:24;;;;;;;17.50;6.75;;;;;;;12.58;71.80;101238.31;5069634;28;20040;-66
2023/10/05 05:33:10;;;;;;;14.18;5.93;;;;;;;12.82;73.03;101276.41;5065750;28;20100;-67
2023/10/05 05:35:43;;;;;;;13.63;5.75;;;;;;;12.88;74.40;101279.25;5024862;28;20100;-66
2023/10/05 05:38:11;;;;;;;16.08;6.30;;;;;;;12.97;75.23;101276.13;5046918;28;20048;-66
2023/10/05 05:40:38;;;;;;;16.60;7.32;;;;;;;13.06;75.84;101282.56;5049412;28;20530;-67
2023/10/05 05:43:08;;;;;;;18.15;7.20;;;;;;;13.12;75.55;101268.94;5047677;28;20033;-67
2023/10/05 05:45:34;;;;;;;13.55;6.50;;;;;;;13.33;74.85;101291.38;5046364;28;20234;-67
2023/10/05 05:48:00;;;;;;;17.08;6.53;;;;;;;13.27;73.64;101254.00;5047610;28;20570;-67
2023/10/05 05:50:29;;;;;;;16.70;7.10;;;;;;;13.45;73.52;101285.81;5044189;28;20041;-68
2023/10/05 05:52:56;;;;;;;16.25;7.22;;;;;;;13.48;73.08;101280.75;5017661;28;20034;-68
2023/10/05 05:55:22;;;;;;;15.38;6.28;;;;;;;13.55;73.06;101282.75;5015072;28;20066;-68
2023/10/05 05:57:51;;;;;;;14.32;6.70;;;;;;;13.52;73.59;101290.38;5030586;28;20133;-67
2023/10/05 06:00:18;;;;;;;15.20;6.03;;;;;;;13.54;73.91;101289.63;5031401;28;20565;-67
2023/10/05 06:02:44;;;;;;;16.35;7.75;;;;;;;13.41;73.77;101256.28;5030780;28;20292;-67
2023/10/05 06:05:30;;;;;;;16.63;6.63;;;;;;;13.75;74.21;101299.94;4996805;28;20465;-67
2023/10/05 06:07:55;;;;;;;12.65;6.70;;;;;;;13.74;75.15;101302.47;5029872;28;20116;-67
2023/10/05 06:10:28;;;;;;;18.67;7.28;;;;;;;13.72;76.54;101305.03;5030909;28;20124;-67
2023/10/05 06:12:54;;;;;;;12.77;6.55;;;;;;;13.63;77.42;101309.84;5031000;28;20052;-66
2023/10/05 06:15:20;;;;;;;16.30;6.82;;;;;;;13.83;76.79;101313.22;5030845;28;20056;-67
2023/10/05 06:17:46;;;;;;;16.73;6.63;;;;;;;14.05;76.85;101309.66;5030768;28;20037;-67
2023/10/05 06:20:15;;;;;;;13.98;7.00;;;;;;;14.29;77.10;101326.94;5030578;28;20041;-68
2023/10/05 06:22:44;;;;;;;23.98;7.85;;;;;;;14.45;77.72;101327.50;5030842;28;20431;-67
2023/10/05 06:25:15;;;;;;;16.35;7.90;;;;;;;14.62;76.87;101318.59;5030570;28;20123;-67
2023/10/05 06:27:43;;;;;;;13.02;6.78;;;;;;;14.86;76.99;101315.06;5030710;28;20140;-67
2023/10/05 06:30:10;;;;;;;13.43;5.93;;;;;;;15.00;77.71;101321.63;5030909;28;20037;-67
2023/10/05 06:32:36;;;;;;;13.55;6.40;;;;;;;15.18;78.91;101320.44;5013990;28;20061;-67
2023/10/05 06:35:03;;;;;;;18.50;7.53;;;;;;;15.40;78.92;101311.56;5030619;28;20049;-68
2023/10/05 06:37:29;;;;;;;15.77;6.40;;;;;;;15.34;76.90;101262.84;5068532;28;20043;-67
2023/10/05 06:39:56;;;;;;;12.30;6.55;;;;;;;15.52;78.40;101275.50;5072768;28;20040;-67
2023/10/05 06:42:22;;;;;;;16.02;7.07;;;;;;;15.88;78.00;101309.53;5072528;28;20056;-67
2023/10/05 06:44:49;;;;;;;14.38;6.95;;;;;;;16.05;78.00;101307.41;5073115;28;20067;-67
2023/10/05 06:47:34;;;;;;;14.50;6.50;;;;;;;16.14;79.34;101318.97;5072801;28;20470;-67
2023/10/05 06:50:00;;;;;;;16.33;7.20;;;;;;;16.27;79.21;101324.50;5072969;28;20028;-67
2023/10/05 06:52:25;;;;;;;13.93;6.60;;;;;;;16.34;78.57;101313.41;5072982;28;20040;-67
2023/10/05 06:54:51;;;;;;;12.32;6.35;;;;;;;16.34;80.11;101322.09;5072640;28;20116;-66
2023/10/05 06:57:16;;;;;;;12.57;6.22;;;;;;;16.57;80.15;101328.78;5072456;28;20090;-66
2023/10/05 06:59:42;;;;;;;12.95;6.28;;;;;;;16.76;79.24;101325.81;5072451;28;20556;-66
2023/10/05 07:02:08;;;;;;;12.05;6.68;;;;;;;16.95;78.47;101323.69;5072663;28;20068;-67
2023/10/05 07:04:35;;;;;;;17.80;6.95;;;;;;;16.72;77.39;101291.78;5072927;28;20441;-67
2023/10/05 07:07:03;;;;;;;21.08;7.20;;;;;;;16.66;78.44;101292.53;5072670;28;20415;-67
2023/10/05 07:09:29;;;;;;;16.00;7.53;;;;;;;16.93;79.33;101323.63;5072416;28;20036;-67
2023/10/05 07:11:55;;;;;;;18.83;6.90;;;;;;;17.08;78.95;101319.63;5072587;28;20100;-67
2023/10/05 07:14:20;;;;;;;18.52;6.60;;;;;;;17.17;77.86;101321.56;5072253;28;20039;-67
2023/10/05 07:16:46;;;;;;;14.70;7.15;;;;;;;17.12;78.29;101330.19;5072358;28;20482;-67
2023/10/05 07:19:11;;;;;;;17.27;7.47;;;;;;;17.20;78.30;101316.44;5072250;28;20033;-66
2023/10/05 07:21:37;;;;;;;15.27;6.95;;;;;;;17.43;77.67;101330.00;5072485;28;20091;-67
2023/10/05 07:24:04;;;;;;;16.58;6.97;;;;;;;17.69;77.00;101329.72;5071992;28;20181;-67
2023/10/05 07:26:30;;;;;;;16.88;8.07;;;;;;;17.94;76.26;101336.34;5072104;28;20083;-67
2023/10/05 07:28:55;;;;;;;16.63;6.75;;;;;;;18.17;74.64;101331.59;5071643;28;20071;-67
2023/10/05 07:31:22;;;;;;;13.82;7.43;;;;;;;18.05;75.02;101337.44;5072302;28;20474;-67
2023/10/05 07:33:48;;;;;;;16.17;7.15;;;;;;;18.10;75.58;101335.81;5072346;28;20080;-67
2023/10/05 07:36:14;;;;;;;17.25;7.53;;;;;;;18.25;75.16;101336.97;5070727;28;20410;-67
2023/10/05 07:38:40;;;;;;;15.48;7.32;;;;;;;18.39;73.97;101332.00;5070280;28;20041;-66
2023/10/05 07:41:07;;;;;;;13.68;6.93;;;;;;;18.45;74.38;101321.66;5071874;28;20040;-67
2023/10/05 07:43:34;;;;;;;14.32;6.68;;;;;;;18.54;73.07;101298.28;5071982;28;20044;-66
2023/10/05 07:46:00;;;;;;;15.68;6.97;;;;;;;18.74;72.79;101330.03;5071913;28;20493;-68
2023/10/05 07:48:27;;;;;;;17.83;6.63;;;;;;;18.88;70.81;101319.78;5071591;28;20032;-68
2023/10/05 07:50:52;;;;;;;16.75;6.68;;;;;;;19.16;69.17;101330.72;5070299;28;20059;-68
2023/10/05 07:53:19;;;;;;;15.82;6.95;;;;;;;19.18;68.39;101315.06;5071440;28;20046;-68
2023/10/05 07:55:44;;;;;;;17.08;6.68;;;;;;;19.24;68.07;101326.47;5071245;28;20690;-68
2023/10/05 07:58:10;;;;;;;16.33;6.88;;;;;;;19.42;67.39;101335.47;5071354;28;20127;-68
2023/10/05 08:00:35;;;;;;;18.08;7.38;;;;;;;19.56;68.76;101331.31;5070884;28;20182;-68
2023/10/05 08:03:01;;;;;;;13.55;7.03;;;;;;;19.69;67.52;101334.09;5071385;28;20077;-67
2023/10/05 08:05:26;;;;;;;14.00;6.70;;;;;;;19.81;67.70;101328.13;5071452;28;20045;-68
2023/10/05 08:07:54;;;;;;;12.68;6.47;;;;;;;19.94;66.08;101329.16;5071406;28;20040;-68
2023/10/05 08:10:20;;;;;;;15.05;6.57;;;;;;;20.02;64.44;101330.16;5071551;28;20032;-68
2023/10/05 08:12:48;;;;;;;16.10;6.47;;;;;;;20.10;64.55;101320.66;5032664;28;20414;-69
2023/10/05 08:15:18;;;;;;;13.55;6.47;;;;;;;20.30;63.18;101315.59;5065955;28;20035;-68
2023/10/05 08:17:43;;;;;;;;;;;;;;;20.46;62.09;101314.03;5062775;28;20109;-67
2023/10/05 08:20:09;;;;;;;13.25;6.38;;;;;;;20.46;61.99;101303.53;5070153;28;19956;-69
2023/10/05 08:22:36;;;;;;;14.25;5.93;;;;;;;20.67;63.64;101318.59;5070758;28;20032;-68
2023/10/05 08:25:10;;;;;;;14.15;6.55;;;;;;;20.83;61.34;101305.63;5067631;28;20527;-68
2023/10/05 08:27:37;;;;;;;12.73;6.65;;;;;;;20.74;62.94;101284.56;5069935;28;20048;-68
2023/10/05 08:30:04;;;;;;;12.63;5.97;;;;;;;20.95;62.71;101304.84;5052841;28;20052;-67
2023/10/05 08:32:33;;;;;;;17.02;5.93;;;;;;;21.07;60.24;101294.44;5070553;28;20102;-67
2023/10/05 08:35:06;;;;;;;16.23;6.10;;;;;;;21.20;58.91;101307.63;5049436;28;20064;-67
2023/10/05 08:37:33;;;;;;;13.13;6.55;;;;;;;21.10;60.34;101270.81;5066437;28;20032;-68
2023/10/05 08:39:59;;;;;;;15.68;7.10;;;;;;;21.43;58.73;101306.03;5070001;28;20048;-69
2023/10/05 08:42:26;;;;;;;13.77;6.68;;;;;;;21.59;57.27;101298.25;5070221;28;20039;-68
2023/10/05 08:44:53;;;;;;;15.82;6.80;;;;;;;21.71;56.88;101298.31;5070242;28;20141;-68
2023/10/05 08:47:22;;;;;;;16.40;6.55;;;;;;;21.85;57.18;101289.59;5070078;28;20521;-66
2023/10/05 08:49:50;;;;;;;23.17;7.03;;;;;;;22.08;56.38;101293.19;5069967;28;20177;-67
2023/10/05 08:52:20;;;;;;;20.77;6.03;;;;;;;22.25;54.14;101284.44;5069841;28;20036;-66
2023/10/05 08:54:46;;;;;;;13.88;6.20;;;;;;;22.36;53.54;101293.22;5070001;28;20457;-67
2023/10/05 08:57:16;;;;;;;14.90;6.53;;;;;;;22.45;54.72;101287.13;5069220;28;20040;-67
2023/10/05 08:59:45;;;;;;;17.98;7.07;;;;;;;22.56;54.88;101277.47;5069331;28;20041;-66
2023/10/05 09:02:11;;;;;;;14.10;6.45;;;;;;;22.66;51.97;101286.25;5068802;28;20040;-65
2023/10/05 09:04:43;;;;;;;14.05;6.13;;;;;;;22.61;52.14;101283.59;5070071;28;20036;-66
2023/10/05 09:07:37;;;;;;;15.88;6.50;;;;;;;22.76;53.17;101274.81;5044694;28;20037;-66
2023/10/05 09:10:08;;;;;;;17.95;7.40;;;;;;;22.62;51.88;101245.03;5067797;28;20043;-66
2023/10/05 09:12:46;;;;;;;21.02;7.07;;;;;;;22.95;53.08;101277.44;5069194;28;20090;-67
2023/10/05 09:15:27;;;;;;;14.40;7.10;;;;;;;22.84;52.59;101230.09;5065417;28;20498;-67
2023/10/05 09:17:59;;;;;;;13.50;6.88;;;;;;;23.24;52.28;101276.53;5069804;28;20596;-68
2023/10/05 09:20:32;;;;;;;15.18;6.45;;;;;;;23.42;52.11;101271.22;5033690;28;20083;-65
2023/10/05 09:23:04;;;;;;;15.50;6.47;;;;;;;23.55;49.85;101272.06;5069688;28;20043;-66
2023/10/05 09:25:38;;;;;;;16.58;7.15;;;;;;;23.69;51.24;101261.44;5069956;28;20032;-68
2023/10/05 09:28:15;;;;;;;15.75;6.90;;;;;;;23.83;49.46;101258.72;5069859;28;20076;-66
2023/10/05 09:30:56;;;;;;;15.25;6.22;;;;;;;23.94;49.15;101261.34;5069751;28;20063;-65
2023/10/05 09:33:25;;;;;;;13.98;6.70;;;;;;;23.61;48.04;101251.81;5069754;28;20119;-65
2023/10/05 09:35:55;;;;;;;20.70;6.93;;;;;;;23.27;48.43;101197.50;5070186;28;20068;-65
2023/10/05 09:38:21;;;;;;;12.80;5.53;;;;;;;23.82;50.27;101254.34;5069428;28;20044;-65
2023/10/05 09:40:54;;;;;;;11.60;6.07;;;;;;;24.00;48.91;101249.88;5069718;28;20044;-67
2023/10/05 09:43:22;;;;;;;16.52;7.13;;;;;;;24.07;47.09;101243.69;5067062;28;20030;-68
2023/10/05 09:45:56;;;;;;;17.33;6.90;;;;;;;24.02;49.04;101225.22;5052377;28;20142;-66
2023/10/05 09:48:24;;;;;;;17.98;7.93;;;;;;;24.17;48.58;101244.50;5069325;28;20035;-67
2023/10/05 09:50:52;;;;;;;27.40;8.52;;;;;;;23.98;49.25;101214.75;5067646;28;20044;-65
2023/10/05 09:53:18;;;;;;;21.00;8.05;;;;;;;24.08;48.64;101223.47;5058767;28;20032;-66
2023/10/05 09:55:53;;;;;;;16.25;7.30;;;;;;;23.98;48.46;101223.50;5069376;28;20484;-67
2023/10/05 09:58:21;;;;;;;15.52;6.57;;;;;;;23.85;47.86;101227.97;5051338;28;20056;-66
2023/10/05 10:03:13;;;;;;;21.48;7.35;;;;;;;24.03;48.42;101220.84;5068688;28;20077;-66
2023/10/05 10:06:12;;;;;;;14.52;6.30;;;;;;;24.26;47.75;101217.16;5059404;28;20032;-67
2023/10/05 10:08:51;;;;;;;17.20;6.30;;;;;;;24.52;46.67;101217.81;5026379;28;20037;-67
2023/10/05 10:11:18;;;;;;;13.80;5.40;;;;;;;24.47;45.25;101208.19;5025789;28;20148;-67
2023/10/05 10:14:06;;;;;;;12.55;6.05;;;;;;;24.46;44.67;101194.13;5033983;28;20644;-67
2023/10/05 10:16:34;;;;;;;12.90;6.40;;;;;;;24.47;45.04;101182.66;5033160;28;20041;-67
2023/10/05 10:19:06;;;;;;;12.55;6.07;;;;;;;24.68;44.88;101207.16;5027093;28;20049;-68
2023/10/05 10:21:41;;;;;;;13.60;5.78;;;;;;;24.73;44.13;101196.53;5033455;28;20489;-66
2023/10/05 10:24:19;;;;;;;10.93;5.15;;;;;;;24.57;43.43;101164.09;5028017;28;20038;-68
2023/10/05 10:26:53;;;;;;;11.25;4.95;;;;;;;24.88;44.70;101196.38;5033745;28;20478;-67
2023/10/05 10:29:22;;;;;;;11.63;5.85;;;;;;;24.87;44.21;101184.94;5037416;28;20141;-67
2023/10/05 10:32:21;;;;;;;10.70;5.47;;;;;;;24.97;43.80;101180.44;5048990;28;20112;-66
2023/10/05 10:34:52;;;;;;;16.02;5.40;;;;;;;24.79;44.91;101141.03;4954828;28;20495;-66
2023/10/05 10:45:33;;;;;;;14.05;5.15;;;;;;;25.66;41.69;101164.59;4925981;29;20028;-70
2023/10/05 10:48:00;;;;;;;13.55;5.53;;;;;;;25.75;41.49;101150.34;4932676;29;20042;-68
2023/10/05 10:50:35;;;;;;;15.05;5.72;;;;;;;25.83;41.39;101146.69;4932350;29;20055;-68
2023/10/05 10:53:13;;;;;;;17.00;5.82;;;;;;;25.80;41.99;101143.22;4926254;29;20646;-68
2023/10/05 10:55:46;;;;;;;18.17;5.80;;;;;;;25.87;40.94;101134.28;4929109;29;20036;-68
2023/10/05 10:58:16;;;;;;;14.95;5.85;;;;;;;25.98;42.38;101128.81;4932650;29;20122;-68
2023/10/05 11:01:13;;;;;;;23.63;6.53;;;;;;;26.14;40.99;101126.81;4932415;29;20441;-68
2023/10/05 11:03:41;;;;;;;14.48;5.15;;;;;;;26.20;39.37;101126.69;4931583;29;20079;-68
2023/10/05 11:06:09;;;;;;;12.02;5.30;;;;;;;26.28;40.38;101111.56;4931383;29;20039;-69
2023/10/05 11:08:40;;;;;;;12.93;5.50;;;;;;;26.32;40.85;101113.25;4931683;29;20055;-69
2023/10/05 11:11:19;;;;;;;13.95;5.85;;;;;;;26.38;39.49;101100.78;4935199;28;20411;-69
2023/10/05 11:13:49;;;;;;;12.20;4.97;;;;;;;26.48;38.52;101110.31;5004314;28;20053;-68
2023/10/05 11:16:19;;;;;;;14.65;5.18;;;;;;;26.44;38.03;101103.31;5006301;28;20050;-70
2023/10/05 11:18:57;;;;;;;9.57;4.97;;;;;;;26.41;38.82;101092.81;5066801;28;20037;-69
2023/10/05 11:21:26;;;;;;;10.30;4.93;;;;;;;26.58;39.73;101092.47;5069258;28;20505;-69
2023/10/05 11:23:56;;;;;;;10.95;5.05;;;;;;;26.67;39.06;101096.69;5071894;28;20051;-69
2023/10/05 11:26:57;;;;;;;13.48;4.88;;;;;;;26.63;37.73;101080.88;5050154;28;20032;-69
2023/10/05 11:29:42;;;;;;;12.02;5.55;;;;;;;26.68;38.45;101059.63;5049515;28;20281;-68
2023/10/05 11:32:12;;;;;;;10.55;4.72;;;;;;;27.00;37.52;101087.22;5035551;28;20040;-69
2023/10/05 11:34:45;;;;;;;9.63;4.10;;;;;;;26.90;36.46;101085.69;5062733;28;20116;-70
2023/10/05 11:37:17;;;;;;;13.25;4.82;;;;;;;26.98;36.23;101080.22;5067577;28;20112;-70
2023/10/05 11:39:58;;;;;;;11.10;4.70;;;;;;;27.01;36.62;101069.56;5059786;28;20045;-69
2023/10/05 11:42:24;;;;;;;12.50;4.50;;;;;;;27.04;37.06;101082.72;5064481;28;20051;-69
2023/10/05 11:45:00;;;;;;;9.20;4.40;;;;;;;27.08;35.67;101076.47;5065198;28;20111;-69
2023/10/05 11:47:35;;;;;;;11.45;5.00;;;;;;;27.12;36.95;101062.22;5061659;28;20033;-69
2023/10/05 11:50:08;;;;;;;13.48;4.75;;;;;;;27.26;36.01;101076.03;5051664;28;20037;-68
2023/10/05 11:52:38;;;;;;;10.73;4.70;;;;;;;27.24;36.53;101072.56;5056881;28;20114;-69
2023/10/05 11:55:11;;;;;;;12.07;5.28;;;;;;;27.26;35.20;101064.56;5064682;28;20036;-69